KEPH/EPH METAR and TAF weather

Enter ICAO airport designator
Station Type Date Time Source
KEPH METAR 2018/12/12 07:53 UTC NOAA

KEPH 120753Z AUTO 28014G22KT 10SM BKN110 04/M01 A2967 RMK AO2 PK WND 28026/0713 SLP059 T00441006 400561022


Station Type Date Time Source
KEPH Decoded METAR 2018/12/12 07:53 UTC NOAA

EPHRATA MUNICIPAL AIRPORT, WA, United States (KEPH) 47-18N 119-31W 383M
Dec 12, 2018 - 02:53 AM EST / 2018.12.12 0753 UTC
Wind: from the W (280 degrees) at 16 MPH (14 KT) gusting to 25 MPH (22 KT):0
Visibility: 10 mile(s):0
Sky conditions: mostly cloudy
Temperature: 39.9 F (4.4 C)
Dew Point: 30.9 F (-0.6 C)
Relative Humidity: 69%
Pressure (altimeter): 29.67 in. Hg (1004 hPa)
ob: KEPH 120753Z AUTO 28014G22KT 10SM BKN110 04/M01 A2967 RMK AO2 PK WND 28026/0713 SLP059 T00441006 400561022
cycle: 8

Station Type Date Time Source
KEPH TAF UTC NOAA

Error!


Example: see airport list